createdAt,value
2023-02-20T00:00:24.337Z,1016.19
2023-02-20T00:01:24.310Z,1016.33
2023-02-20T00:02:24.364Z,1016.15
2023-02-20T00:03:24.378Z,1016.17
2023-02-20T00:04:24.264Z,1016.21
2023-02-20T00:05:24.274Z,1016.20
2023-02-20T00:06:24.260Z,1016.11
2023-02-20T00:07:24.259Z,1016.08
2023-02-20T00:08:24.267Z,1016.06
2023-02-20T00:09:24.232Z,1016.02
2023-02-20T00:10:24.292Z,1016.08
2023-02-20T00:11:24.213Z,1016.06
2023-02-20T00:12:24.527Z,1016.10
2023-02-20T00:13:24.195Z,1016.04
2023-02-20T00:14:24.176Z,1016.01
2023-02-20T00:15:24.160Z,1016.08
2023-02-20T00:16:24.140Z,1015.97
2023-02-20T00:17:24.145Z,1015.97
2023-02-20T00:18:24.125Z,1016.04
2023-02-20T00:19:24.385Z,1016.12
2023-02-20T00:20:24.102Z,1015.96
2023-02-20T00:21:24.096Z,1015.96
2023-02-20T00:22:24.084Z,1016.05
2023-02-20T00:23:24.087Z,1016.04
2023-02-20T00:24:24.052Z,1016.03
2023-02-20T00:25:24.073Z,1015.93
2023-02-20T00:26:24.023Z,1016.10
2023-02-20T00:27:24.030Z,1016.03
2023-02-20T00:28:24.038Z,1015.94
2023-02-20T00:29:23.997Z,1015.98
2023-02-20T00:30:24.018Z,1016.04
2023-02-20T00:31:24.067Z,1015.90
2023-02-20T00:32:23.968Z,1015.91
2023-02-20T00:33:23.994Z,1015.91
2023-02-20T00:34:23.948Z,1015.92
2023-02-20T00:35:23.948Z,1015.86
2023-02-20T00:36:23.930Z,1015.88
2023-02-20T00:37:23.928Z,1015.91
2023-02-20T00:38:23.904Z,1015.74
2023-02-20T00:39:23.915Z,1015.78
2023-02-20T00:40:24.849Z,1015.86
2023-02-20T00:41:23.886Z,1016.01
2023-02-20T00:42:23.867Z,1015.77
2023-02-20T00:43:23.870Z,1015.78
2023-02-20T00:44:23.865Z,1015.74
2023-02-20T00:45:23.854Z,1015.67
2023-02-20T00:46:23.855Z,1015.67
2023-02-20T00:47:23.822Z,1015.66
2023-02-20T00:48:23.809Z,1015.64
2023-02-20T00:49:23.798Z,1015.62
2023-02-20T00:50:23.778Z,1015.57
2023-02-20T00:51:23.784Z,1015.62
2023-02-20T00:52:23.751Z,1015.58
2023-02-20T00:53:23.811Z,1015.59
2023-02-20T00:54:23.737Z,1015.52
2023-02-20T00:55:23.758Z,1015.58
2023-02-20T00:56:23.748Z,1015.48
2023-02-20T00:57:23.739Z,1015.44
2023-02-20T00:58:23.699Z,1015.48
2023-02-20T00:59:23.696Z,1015.37
2023-02-20T01:00:23.666Z,1015.31
2023-02-20T01:01:23.681Z,1015.31
2023-02-20T01:02:23.706Z,1015.21
2023-02-20T01:03:23.656Z,1015.28
2023-02-20T01:04:23.621Z,1015.29
2023-02-20T01:05:23.654Z,1015.27
2023-02-20T01:06:23.643Z,1015.28
2023-02-20T01:07:23.643Z,1015.31
2023-02-20T01:08:23.578Z,1015.27
2023-02-20T01:09:23.583Z,1015.23
2023-02-20T01:10:23.578Z,1015.26
2023-02-20T01:11:23.572Z,1015.28
2023-02-20T01:12:23.539Z,1015.29
2023-02-20T01:13:23.881Z,1015.34
2023-02-20T01:14:23.512Z,1015.38
2023-02-20T01:15:23.544Z,1015.36
2023-02-20T01:16:23.580Z,1015.39
2023-02-20T01:17:23.493Z,1015.31
2023-02-20T01:18:23.488Z,1015.35
2023-02-20T01:19:23.492Z,1015.35
2023-02-20T01:20:23.450Z,1015.43
2023-02-20T01:21:23.465Z,1015.44
2023-02-20T01:22:23.431Z,1015.40
2023-02-20T01:23:23.441Z,1015.37
2023-02-20T01:24:23.423Z,1015.31
2023-02-20T01:25:23.445Z,1015.40
2023-02-20T01:26:23.403Z,1015.27
2023-02-20T01:27:23.406Z,1015.28
2023-02-20T01:28:23.387Z,1015.23
2023-02-20T01:29:23.372Z,1015.23
2023-02-20T01:30:23.454Z,1015.34
2023-02-20T01:31:23.519Z,1015.21
2023-02-20T01:32:23.479Z,1015.27
2023-02-20T01:33:23.346Z,1015.22
2023-02-20T01:34:23.314Z,1015.17
2023-02-20T01:35:23.327Z,1015.15
2023-02-20T01:36:23.299Z,1015.23
2023-02-20T01:37:23.309Z,1015.03
2023-02-20T01:38:23.278Z,1014.97
2023-02-20T01:39:23.279Z,1015.03
2023-02-20T01:40:23.265Z,1015.00
2023-02-20T01:41:23.271Z,1014.92
2023-02-20T01:42:23.255Z,1014.93
2023-02-20T01:43:23.223Z,1014.86
2023-02-20T01:44:23.265Z,1014.82
2023-02-20T01:45:23.213Z,1014.85
2023-02-20T01:46:23.285Z,1014.84
2023-02-20T01:47:23.205Z,1014.75
2023-02-20T01:48:23.186Z,1014.78
2023-02-20T01:49:23.151Z,1014.75
2023-02-20T01:50:23.141Z,1014.79
2023-02-20T01:51:23.136Z,1014.78
2023-02-20T01:52:23.147Z,1014.74
2023-02-20T01:53:23.123Z,1014.72
2023-02-20T01:54:23.118Z,1014.69
2023-02-20T01:55:23.094Z,1014.71
2023-02-20T01:56:23.076Z,1014.71
2023-02-20T01:57:23.074Z,1014.73
2023-02-20T01:58:23.128Z,1014.75
2023-02-20T01:59:23.053Z,1014.80
2023-02-20T02:00:23.124Z,1014.79
2023-02-20T02:01:23.033Z,1014.79
2023-02-20T02:02:23.033Z,1014.71
2023-02-20T02:03:22.996Z,1014.85
2023-02-20T02:04:23.010Z,1014.68
2023-02-20T02:05:23.000Z,1014.64
2023-02-20T02:06:22.996Z,1014.60
2023-02-20T02:07:22.986Z,1014.55
2023-02-20T02:08:22.965Z,1014.55
2023-02-20T02:09:22.946Z,1014.46
2023-02-20T02:10:22.951Z,1014.41
2023-02-20T02:11:22.922Z,1014.36
2023-02-20T02:12:22.938Z,1014.32
2023-02-20T02:13:22.902Z,1014.38
2023-02-20T02:14:22.910Z,1014.44
2023-02-20T02:15:23.307Z,1014.44
2023-02-20T02:16:22.945Z,1014.51
2023-02-20T02:17:22.878Z,1014.50
2023-02-20T02:18:22.871Z,1014.63
2023-02-20T02:19:22.825Z,1014.58
2023-02-20T02:20:22.843Z,1014.71
2023-02-20T02:21:22.827Z,1014.44
2023-02-20T02:22:22.799Z,1014.41
2023-02-20T02:23:22.793Z,1014.47
2023-02-20T02:24:22.784Z,1014.40
2023-02-20T02:25:22.778Z,1014.38
2023-02-20T02:26:22.782Z,1014.49
2023-02-20T02:27:22.757Z,1014.42
2023-02-20T02:28:22.750Z,1014.37
2023-02-20T02:29:22.731Z,1014.36
2023-02-20T02:30:22.791Z,1014.40
2023-02-20T02:31:22.810Z,1014.29
2023-02-20T02:32:22.709Z,1014.31
2023-02-20T02:33:22.689Z,1014.35
2023-02-20T02:34:22.680Z,1014.27
2023-02-20T02:35:22.665Z,1014.23
2023-02-20T02:36:22.684Z,1014.24
2023-02-20T02:37:22.667Z,1014.25
2023-02-20T02:38:22.640Z,1014.24
2023-02-20T02:39:22.631Z,1014.20
2023-02-20T02:40:22.614Z,1014.09
2023-02-20T02:41:22.600Z,1014.07
2023-02-20T02:42:22.594Z,1014.24
2023-02-20T02:43:22.576Z,1014.10
2023-02-20T02:44:22.574Z,1014.16
2023-02-20T02:45:22.546Z,1014.02
2023-02-20T02:46:22.617Z,1014.03
2023-02-20T02:47:22.634Z,1014.06
2023-02-20T02:48:22.527Z,1014.00
2023-02-20T02:49:22.544Z,1013.97
2023-02-20T02:50:22.506Z,1014.05
2023-02-20T02:51:22.474Z,1013.95
2023-02-20T02:52:22.490Z,1013.94
2023-02-20T02:53:22.470Z,1013.92
2023-02-20T02:54:22.461Z,1013.96
2023-02-20T02:55:22.444Z,1013.84
2023-02-20T02:56:22.466Z,1013.95
2023-02-20T02:57:22.419Z,1013.92
2023-02-20T02:58:22.420Z,1013.81
2023-02-20T02:59:22.396Z,1013.84
2023-02-20T03:00:22.420Z,1013.81
2023-02-20T03:01:22.396Z,1013.75
2023-02-20T03:02:22.427Z,1013.69
2023-02-20T03:03:22.393Z,1013.79
2023-02-20T03:04:22.363Z,1013.71
2023-02-20T03:05:22.344Z,1013.70
2023-02-20T03:06:22.345Z,1013.69
2023-02-20T03:07:22.322Z,1013.72
2023-02-20T03:08:22.531Z,1013.62
2023-02-20T03:09:22.296Z,1013.65
2023-02-20T03:10:22.301Z,1013.63
2023-02-20T03:11:22.292Z,1013.62
2023-02-20T03:12:22.308Z,1013.68
2023-02-20T03:13:22.262Z,1013.68
2023-02-20T03:14:22.255Z,1013.66
2023-02-20T03:15:22.239Z,1013.64
2023-02-20T03:16:22.239Z,1013.67
2023-02-20T03:17:22.313Z,1013.62
2023-02-20T03:18:22.249Z,1013.58
2023-02-20T03:19:22.176Z,1013.59
2023-02-20T03:20:22.188Z,1013.70
2023-02-20T03:21:22.173Z,1013.58
2023-02-20T03:22:22.168Z,1013.57
2023-02-20T03:23:22.169Z,1013.40
2023-02-20T03:24:22.183Z,1013.55
2023-02-20T03:25:22.116Z,1013.63
2023-02-20T03:26:22.134Z,1013.55
2023-02-20T03:27:22.094Z,1013.52
2023-02-20T03:28:22.112Z,1013.58
2023-02-20T03:29:22.096Z,1013.48
2023-02-20T03:30:22.131Z,1013.45
2023-02-20T03:31:22.194Z,1013.47
2023-02-20T03:32:22.081Z,1013.43
2023-02-20T03:33:22.037Z,1013.30
2023-02-20T03:34:22.083Z,1013.40
2023-02-20T03:35:22.072Z,1013.48
2023-02-20T03:36:22.038Z,1013.45
2023-02-20T03:37:21.998Z,1013.46
2023-02-20T03:38:22.022Z,1013.44
2023-02-20T03:39:22.034Z,1013.49
2023-02-20T03:40:22.006Z,1013.44
2023-02-20T03:41:21.977Z,1013.38
2023-02-20T03:42:21.987Z,1013.40
2023-02-20T03:43:21.955Z,1013.44
2023-02-20T03:44:22.005Z,1013.43
2023-02-20T03:45:21.935Z,1013.44
2023-02-20T03:46:21.973Z,1013.54
2023-02-20T03:47:21.898Z,1013.52
2023-02-20T03:48:21.993Z,1013.26
2023-02-20T03:49:21.908Z,1013.36
2023-02-20T03:50:21.875Z,1013.26
2023-02-20T03:51:31.910Z,1013.30
2023-02-20T03:52:21.863Z,1013.37
2023-02-20T03:53:21.873Z,1013.34
2023-02-20T03:54:21.843Z,1013.41
2023-02-20T03:55:21.818Z,1013.61
2023-02-20T03:56:21.833Z,1013.36
2023-02-20T03:57:21.806Z,1013.40
2023-02-20T03:58:21.833Z,1013.34
2023-02-20T03:59:21.794Z,1013.29
2023-02-20T04:00:21.783Z,1013.36
2023-02-20T04:01:21.793Z,1013.37
2023-02-20T04:02:21.820Z,1013.32
2023-02-20T04:03:21.726Z,1013.35
2023-02-20T04:04:21.740Z,1013.38
2023-02-20T04:05:21.759Z,1013.27
2023-02-20T04:06:21.726Z,1013.23
2023-02-20T04:07:21.737Z,1013.14
2023-02-20T04:08:21.706Z,1013.21
2023-02-20T04:09:21.696Z,1013.24
2023-02-20T04:10:21.696Z,1013.15
2023-02-20T04:11:21.692Z,1013.38
2023-02-20T04:12:21.653Z,1013.16
2023-02-20T04:13:21.699Z,1013.22
2023-02-20T04:14:21.663Z,1013.19
2023-02-20T04:15:21.604Z,1013.18
2023-02-20T04:16:21.642Z,1013.15
2023-02-20T04:17:21.574Z,1013.14
2023-02-20T04:18:21.632Z,1012.98
2023-02-20T04:19:21.643Z,1013.10
2023-02-20T04:20:21.594Z,1012.96
2023-02-20T04:21:21.553Z,1012.92
2023-02-20T04:22:21.584Z,1012.90
2023-02-20T04:23:21.527Z,1012.87
2023-02-20T04:24:21.509Z,1012.73
2023-02-20T04:25:21.512Z,1012.90
2023-02-20T04:26:21.533Z,1012.87
2023-02-20T04:27:21.516Z,1012.91
2023-02-20T04:28:21.499Z,1012.85
2023-02-20T04:29:21.503Z,1012.81
2023-02-20T04:30:21.514Z,1012.76
2023-02-20T04:31:21.501Z,1012.66
2023-02-20T04:32:21.481Z,1012.74
2023-02-20T04:33:21.426Z,1012.64
2023-02-20T04:34:21.421Z,1012.72
2023-02-20T04:35:21.379Z,1012.68
2023-02-20T04:36:21.380Z,1012.66
2023-02-20T04:37:21.372Z,1012.71
2023-02-20T04:38:21.384Z,1012.72
2023-02-20T04:39:21.360Z,1012.70
2023-02-20T04:40:21.373Z,1012.57
2023-02-20T04:41:21.339Z,1012.71
2023-02-20T04:42:21.348Z,1012.62
2023-02-20T04:43:21.329Z,1012.62
2023-02-20T04:44:21.314Z,1012.61
2023-02-20T04:45:21.308Z,1012.57
2023-02-20T04:46:21.326Z,1012.50
2023-02-20T04:47:21.264Z,1012.51
2023-02-20T04:48:21.284Z,1012.54
2023-02-20T04:49:21.231Z,1012.52
2023-02-20T04:50:21.302Z,1012.52
2023-02-20T04:51:21.253Z,1012.72
2023-02-20T04:52:21.227Z,1012.46
2023-02-20T04:53:21.206Z,1012.56
2023-02-20T04:54:21.196Z,1012.42
2023-02-20T04:55:21.206Z,1012.32
2023-02-20T04:56:21.187Z,1012.52
2023-02-20T04:57:21.184Z,1012.51
2023-02-20T04:58:21.172Z,1012.43
2023-02-20T04:59:21.142Z,1012.36
2023-02-20T05:00:21.117Z,1012.38
2023-02-20T05:01:21.214Z,1012.38
2023-02-20T05:02:21.109Z,1012.38
2023-02-20T05:03:21.092Z,1012.35
2023-02-20T05:04:21.110Z,1012.29
2023-02-20T05:05:21.057Z,1012.35
2023-02-20T05:06:21.075Z,1012.36
2023-02-20T05:07:21.056Z,1012.35
2023-02-20T05:08:21.049Z,1012.29
2023-02-20T05:09:21.043Z,1012.26
2023-02-20T05:10:21.032Z,1012.28
2023-02-20T05:11:21.012Z,1012.25
2023-02-20T05:12:21.058Z,1012.25
2023-02-20T05:13:21.005Z,1012.29
2023-02-20T05:14:21.021Z,1012.25
2023-02-20T05:15:20.956Z,1012.34
2023-02-20T05:16:20.971Z,1012.30
2023-02-20T05:17:20.936Z,1012.36
2023-02-20T05:18:20.984Z,1012.51
2023-02-20T05:19:20.919Z,1012.45
2023-02-20T05:20:20.943Z,1012.42
2023-02-20T05:21:21.134Z,1012.33
2023-02-20T05:22:20.925Z,1012.31
2023-02-20T05:23:20.870Z,1012.38
2023-02-20T05:24:20.897Z,1012.36
2023-02-20T05:25:20.861Z,1012.34
2023-02-20T05:26:20.891Z,1012.35
2023-02-20T05:27:20.874Z,1012.46
2023-02-20T05:28:20.836Z,1012.27
2023-02-20T05:29:21.042Z,1012.24
2023-02-20T05:30:20.835Z,1012.20
2023-02-20T05:31:20.918Z,1012.20
2023-02-20T05:32:20.800Z,1012.25
2023-02-20T05:33:20.789Z,1012.18
2023-02-20T05:34:20.761Z,1012.21
2023-02-20T05:35:20.777Z,1012.27
2023-02-20T05:36:20.749Z,1012.14
2023-02-20T05:37:20.743Z,1012.20
2023-02-20T05:38:20.740Z,1012.11
2023-02-20T05:39:20.707Z,1012.06
2023-02-20T05:40:20.718Z,1012.12
2023-02-20T05:41:20.720Z,1012.19
2023-02-20T05:42:20.735Z,1012.23
2023-02-20T05:43:20.687Z,1012.13
2023-02-20T05:44:20.687Z,1012.10
2023-02-20T05:45:20.644Z,1012.10
2023-02-20T05:46:20.682Z,1012.05
2023-02-20T05:47:20.646Z,1012.16
2023-02-20T05:48:20.686Z,1012.18
2023-02-20T05:49:20.610Z,1012.00
2023-02-20T05:50:20.581Z,1012.00
2023-02-20T05:51:20.590Z,1011.96
2023-02-20T05:52:20.632Z,1012.00
2023-02-20T05:53:27.558Z,1011.95
2023-02-20T05:54:20.572Z,1011.91
2023-02-20T05:55:21.616Z,1011.86
2023-02-20T05:56:23.260Z,1011.85
2023-02-20T05:57:20.506Z,1011.87
2023-02-20T05:58:20.535Z,1011.83
2023-02-20T05:59:20.490Z,1011.90
2023-02-20T06:00:20.489Z,1011.92
2023-02-20T06:01:20.468Z,1011.79
2023-02-20T06:02:20.472Z,1011.87
2023-02-20T06:03:20.448Z,1011.89
2023-02-20T06:04:20.526Z,1011.88
2023-02-20T06:05:20.421Z,1011.87
2023-02-20T06:06:20.417Z,1011.86
2023-02-20T06:07:20.418Z,1011.96
2023-02-20T06:08:20.402Z,1011.85
2023-02-20T06:09:20.392Z,1011.93
2023-02-20T06:10:20.375Z,1011.93
2023-02-20T06:11:20.377Z,1011.92
2023-02-20T06:12:20.356Z,1011.84
2023-02-20T06:13:20.330Z,1012.16
2023-02-20T06:14:20.333Z,1011.93
2023-02-20T06:15:20.326Z,1011.71
2023-02-20T06:16:20.353Z,1011.80
2023-02-20T06:17:20.307Z,1011.80
2023-02-20T06:18:20.302Z,1011.88
2023-02-20T06:19:20.319Z,1011.92
2023-02-20T06:20:20.281Z,1011.84
2023-02-20T06:21:20.261Z,1011.84
2023-02-20T06:22:20.246Z,1011.84
2023-02-20T06:23:20.328Z,1011.84
2023-02-20T06:24:20.237Z,1011.88
2023-02-20T06:25:20.251Z,1011.87
2023-02-20T06:26:20.254Z,1011.87
2023-02-20T06:27:20.206Z,1011.99
2023-02-20T06:28:20.175Z,1011.86
2023-02-20T06:29:20.180Z,1011.85
2023-02-20T06:30:20.242Z,1011.89
2023-02-20T06:31:20.215Z,1011.84
2023-02-20T06:32:20.184Z,1011.92
2023-02-20T06:33:20.143Z,1011.95
2023-02-20T06:34:20.123Z,1012.00
2023-02-20T06:35:20.132Z,1012.52
2023-02-20T06:36:20.115Z,1012.02
2023-02-20T06:37:20.080Z,1012.00
2023-02-20T06:38:20.065Z,1011.87
2023-02-20T06:39:20.082Z,1012.06
2023-02-20T06:40:20.075Z,1012.10
2023-02-20T06:41:20.051Z,1011.92
2023-02-20T06:42:20.046Z,1011.87
2023-02-20T06:43:20.053Z,1012.05
2023-02-20T06:44:20.017Z,1012.04
2023-02-20T06:45:20.017Z,1011.97
2023-02-20T06:46:20.004Z,1012.11
2023-02-20T06:47:19.994Z,1012.17
2023-02-20T06:48:19.971Z,1012.07
2023-02-20T06:49:19.971Z,1011.97
2023-02-20T06:50:19.952Z,1012.20
2023-02-20T06:51:19.952Z,1012.07
2023-02-20T06:52:19.935Z,1012.07
2023-02-20T06:53:19.937Z,1012.06
2023-02-20T06:54:19.956Z,1012.07
2023-02-20T06:55:19.922Z,1011.95
2023-02-20T06:56:19.901Z,1012.07
2023-02-20T06:57:19.889Z,1011.98
2023-02-20T06:58:19.863Z,1012.02
2023-02-20T06:59:19.869Z,1012.05
2023-02-20T07:00:19.842Z,1011.99
2023-02-20T07:01:19.854Z,1011.97
2023-02-20T07:02:19.873Z,1012.02
2023-02-20T07:03:19.835Z,1012.18
2023-02-20T07:04:19.816Z,1012.01
2023-02-20T07:05:19.816Z,1012.10
2023-02-20T07:06:19.786Z,1012.41
2023-02-20T07:07:19.786Z,1012.11
2023-02-20T07:08:19.756Z,1012.10
2023-02-20T07:09:19.763Z,1012.15
2023-02-20T07:10:19.742Z,1012.07
2023-02-20T07:11:19.756Z,1012.17
2023-02-20T07:12:19.726Z,1012.20
2023-02-20T07:13:19.712Z,1012.36
2023-02-20T07:14:19.698Z,1012.13
2023-02-20T07:15:19.865Z,1012.14
2023-02-20T07:16:19.676Z,1012.06
2023-02-20T07:17:19.682Z,1012.09
2023-02-20T07:18:20.613Z,1012.33
2023-02-20T07:19:19.679Z,1012.22
2023-02-20T07:20:19.642Z,1012.07
2023-02-20T07:21:19.652Z,1012.05
2023-02-20T07:22:19.607Z,1012.13
2023-02-20T07:23:20.574Z,1012.14
2023-02-20T07:24:19.604Z,1012.35
2023-02-20T07:25:20.023Z,1012.25
2023-02-20T07:26:19.569Z,1012.19
2023-02-20T07:27:19.560Z,1012.61
2023-02-20T07:28:19.556Z,1012.26
2023-02-20T07:29:19.552Z,1012.43
2023-02-20T07:30:19.568Z,1012.16
2023-02-20T07:31:19.558Z,1012.45
2023-02-20T07:32:19.540Z,1012.14
2023-02-20T07:33:19.505Z,1012.22
2023-02-20T07:34:19.494Z,1012.25
2023-02-20T07:35:19.480Z,1012.29
2023-02-20T07:36:19.460Z,1012.14
2023-02-20T07:37:19.452Z,1012.35
2023-02-20T07:38:19.443Z,1012.27
2023-02-20T07:39:19.455Z,1012.27
2023-02-20T07:40:19.431Z,1012.32
2023-02-20T07:41:19.431Z,1012.31
2023-02-20T07:42:19.427Z,1012.18
2023-02-20T07:43:19.399Z,1012.27
2023-02-20T07:44:19.376Z,1012.38
2023-02-20T07:45:19.763Z,1012.21
2023-02-20T07:46:20.459Z,1012.28
2023-02-20T07:47:19.376Z,1012.20
2023-02-20T07:48:19.324Z,1012.21
2023-02-20T07:49:19.773Z,1012.21
2023-02-20T07:50:19.319Z,1012.36
2023-02-20T07:51:19.309Z,1012.39
2023-02-20T07:52:19.307Z,1012.40
2023-02-20T07:53:19.302Z,1012.38
2023-02-20T07:54:20.015Z,1012.18
2023-02-20T07:55:19.316Z,1012.14
2023-02-20T07:56:19.277Z,1012.16
2023-02-20T07:57:19.252Z,1012.13
2023-02-20T07:58:19.236Z,1012.15
2023-02-20T07:59:19.209Z,1012.16
2023-02-20T08:00:19.202Z,1012.39
2023-02-20T08:01:19.252Z,1012.23
2023-02-20T08:02:19.182Z,1011.80
2023-02-20T08:03:19.192Z,1012.14
2023-02-20T08:04:19.185Z,1012.15
2023-02-20T08:05:19.207Z,1012.27
2023-02-20T08:06:19.208Z,1012.35
2023-02-20T08:07:19.145Z,1012.29
2023-02-20T08:08:19.120Z,1012.28
2023-02-20T08:09:19.112Z,1012.24
2023-02-20T08:10:19.098Z,1012.15
2023-02-20T08:11:19.104Z,1012.23
2023-02-20T08:12:19.087Z,1012.39
2023-02-20T08:13:19.071Z,1012.22
2023-02-20T08:14:19.062Z,1012.28
2023-02-20T08:15:19.037Z,1012.31
2023-02-20T08:16:19.056Z,1012.25
2023-02-20T08:17:19.035Z,1012.40
2023-02-20T08:18:23.845Z,1012.28
2023-02-20T08:19:20.046Z,1012.36
2023-02-20T08:20:18.988Z,1012.20
2023-02-20T08:21:18.997Z,1012.22
2023-02-20T08:22:18.985Z,1012.56
2023-02-20T08:23:18.975Z,1012.37
2023-02-20T08:24:18.953Z,1012.19
2023-02-20T08:25:18.954Z,1012.21
2023-02-20T08:26:18.918Z,1012.28
2023-02-20T08:27:19.093Z,1012.23
2023-02-20T08:28:18.904Z,1012.05
2023-02-20T08:29:18.905Z,1012.01
2023-02-20T08:30:18.909Z,1011.89
2023-02-20T08:31:31.108Z,1012.14
2023-02-20T08:32:19.954Z,1012.03
2023-02-20T08:33:18.860Z,1012.18
2023-02-20T08:34:18.832Z,1012.35
2023-02-20T08:35:18.840Z,1011.92
2023-02-20T08:36:18.819Z,1011.99
2023-02-20T08:37:18.830Z,1012.07
2023-02-20T08:38:18.799Z,1011.99
2023-02-20T08:39:18.795Z,1012.07
2023-02-20T08:40:18.777Z,1012.11
2023-02-20T08:41:18.771Z,1011.95
2023-02-20T08:42:18.742Z,1012.03
2023-02-20T08:43:18.750Z,1012.04
2023-02-20T08:44:18.735Z,1012.23
2023-02-20T08:45:18.726Z,1012.11
2023-02-20T08:46:18.700Z,1012.11
2023-02-20T08:47:18.723Z,1012.00
2023-02-20T08:48:18.693Z,1012.04
2023-02-20T08:49:19.144Z,1012.15
2023-02-20T08:50:18.668Z,1012.01
2023-02-20T08:51:18.678Z,1012.02
2023-02-20T08:52:18.776Z,1012.10
2023-02-20T08:53:18.659Z,1012.01
2023-02-20T08:54:18.660Z,1012.03
2023-02-20T08:55:18.626Z,1012.06
2023-02-20T08:56:18.595Z,1011.98
2023-02-20T08:57:18.606Z,1012.07
2023-02-20T08:58:18.620Z,1011.98
2023-02-20T08:59:18.587Z,1011.92
2023-02-20T09:00:18.569Z,1011.97
2023-02-20T09:01:18.592Z,1012.05
2023-02-20T09:02:18.533Z,1011.99
2023-02-20T09:03:18.543Z,1011.91
2023-02-20T09:04:18.510Z,1011.91
2023-02-20T09:05:18.528Z,1011.85
2023-02-20T09:06:18.512Z,1012.18
2023-02-20T09:07:18.568Z,1012.04
2023-02-20T09:08:18.473Z,1012.08
2023-02-20T09:09:18.481Z,1011.93
2023-02-20T09:10:18.472Z,1011.91
2023-02-20T09:11:18.461Z,1011.94
2023-02-20T09:12:18.441Z,1011.84
2023-02-20T09:13:18.443Z,1011.97
2023-02-20T09:14:18.419Z,1011.89
2023-02-20T09:15:18.412Z,1012.00
2023-02-20T09:16:18.396Z,1012.06
2023-02-20T09:17:18.397Z,1011.71
2023-02-20T09:18:18.380Z,1011.98
2023-02-20T09:19:18.445Z,1011.71
2023-02-20T09:20:18.355Z,1011.73
2023-02-20T09:21:18.355Z,1011.82
2023-02-20T09:22:18.332Z,1011.82
2023-02-20T09:23:18.336Z,1011.81
2023-02-20T09:24:18.317Z,1011.74
2023-02-20T09:25:18.305Z,1011.82
2023-02-20T09:26:18.317Z,1011.86
2023-02-20T09:27:18.267Z,1011.74
2023-02-20T09:28:18.268Z,1011.85
2023-02-20T09:29:18.348Z,1011.72
2023-02-20T09:30:18.334Z,1011.93
2023-02-20T09:31:18.280Z,1011.67
2023-02-20T09:32:18.289Z,1011.64
2023-02-20T09:33:18.228Z,1011.65
2023-02-20T09:34:18.189Z,1011.72
2023-02-20T09:35:18.233Z,1011.54
2023-02-20T09:36:18.199Z,1011.72
2023-02-20T09:37:18.220Z,1011.51
2023-02-20T09:38:18.269Z,1011.52
2023-02-20T09:39:18.186Z,1011.61
2023-02-20T09:40:18.823Z,1011.64
2023-02-20T09:41:18.129Z,1011.55
2023-02-20T09:42:18.112Z,1011.47
2023-02-20T09:43:18.105Z,1011.59
2023-02-20T09:44:18.099Z,1011.48
2023-02-20T09:45:18.104Z,1011.42
2023-02-20T09:46:18.157Z,1011.41
2023-02-20T09:47:18.074Z,1011.48
2023-02-20T09:48:18.142Z,1011.54
2023-02-20T09:49:18.045Z,1011.42
2023-02-20T09:50:18.034Z,1011.44
2023-02-20T09:51:18.026Z,1011.37
2023-02-20T09:52:18.006Z,1011.56
2023-02-20T09:53:18.003Z,1011.47
2023-02-20T09:54:17.993Z,1011.39
2023-02-20T09:55:17.998Z,1011.48
2023-02-20T09:56:17.978Z,1011.62
2023-02-20T09:57:17.974Z,1011.37
2023-02-20T09:58:17.969Z,1011.62
2023-02-20T09:59:17.944Z,1011.55
2023-02-20T10:00:18.089Z,1011.54
2023-02-20T10:01:17.922Z,1011.65
2023-02-20T10:02:17.973Z,1011.72
2023-02-20T10:03:18.003Z,1011.57
2023-02-20T10:04:17.884Z,1011.49
2023-02-20T10:05:17.882Z,1011.58
2023-02-20T10:06:17.865Z,1011.48
2023-02-20T10:07:17.875Z,1011.65
2023-02-20T10:08:17.838Z,1011.55
2023-02-20T10:09:17.836Z,1011.76
2023-02-20T10:10:17.846Z,1011.52
2023-02-20T10:11:17.913Z,1011.68
2023-02-20T10:12:18.011Z,1011.52
2023-02-20T10:13:17.796Z,1011.65
2023-02-20T10:14:17.774Z,1011.52
2023-02-20T10:15:17.770Z,1011.62
2023-02-20T10:16:17.790Z,1011.51
2023-02-20T10:17:17.775Z,1011.36
2023-02-20T10:18:17.739Z,1011.52
2023-02-20T10:19:17.805Z,1011.36
2023-02-20T10:20:17.844Z,1011.42
2023-02-20T10:21:17.971Z,1011.78
2023-02-20T10:22:17.721Z,1011.50
2023-02-20T10:23:17.674Z,1011.68
2023-02-20T10:24:17.682Z,1011.43
2023-02-20T10:25:17.681Z,1011.42
2023-02-20T10:26:17.678Z,1011.40
2023-02-20T10:27:17.637Z,1011.40
2023-02-20T10:28:17.648Z,1011.36
2023-02-20T10:29:17.631Z,1011.47
2023-02-20T10:30:17.684Z,1011.41
2023-02-20T10:31:17.777Z,1011.52
2023-02-20T10:32:17.631Z,1011.49
2023-02-20T10:33:17.578Z,1011.59
2023-02-20T10:34:17.625Z,1011.47
2023-02-20T10:35:17.585Z,1011.49
2023-02-20T10:36:17.569Z,1011.53
2023-02-20T10:37:17.537Z,1011.39
2023-02-20T10:38:17.547Z,1011.74
2023-02-20T10:39:17.533Z,1011.83
2023-02-20T10:40:17.509Z,1011.70
2023-02-20T10:41:17.506Z,1011.65
2023-02-20T10:42:17.510Z,1011.94
2023-02-20T10:43:17.495Z,1011.68
2023-02-20T10:44:17.493Z,1011.64
2023-02-20T10:45:17.492Z,1011.62
2023-02-20T10:46:17.895Z,1011.68
2023-02-20T10:47:17.432Z,1011.71
2023-02-20T10:48:17.465Z,1011.85
2023-02-20T10:49:17.424Z,1011.67
2023-02-20T10:50:17.428Z,1011.75
2023-02-20T10:51:17.425Z,1011.80
2023-02-20T10:52:32.461Z,1011.71
2023-02-20T10:53:18.368Z,1011.84
2023-02-20T10:54:17.382Z,1011.85
2023-02-20T10:55:17.348Z,1011.70
2023-02-20T10:56:17.354Z,1011.66
2023-02-20T10:57:17.326Z,1011.70
2023-02-20T10:58:17.311Z,1011.69
2023-02-20T10:59:17.302Z,1011.57
2023-02-20T11:00:17.332Z,1011.53
2023-02-20T11:01:17.330Z,1011.61
2023-02-20T11:02:17.357Z,1011.69
2023-02-20T11:03:17.267Z,1011.55
2023-02-20T11:04:17.277Z,1011.77
2023-02-20T11:05:17.253Z,1011.70
2023-02-20T11:06:17.227Z,1011.72
2023-02-20T11:07:17.238Z,1011.77
2023-02-20T11:08:17.218Z,1012.08
2023-02-20T11:09:17.190Z,1011.52
2023-02-20T11:10:17.194Z,1011.64
2023-02-20T11:11:17.186Z,1011.68
2023-02-20T11:12:17.181Z,1011.51
2023-02-20T11:13:17.144Z,1011.49
2023-02-20T11:14:17.179Z,1011.64
2023-02-20T11:15:17.129Z,1011.45
2023-02-20T11:16:17.146Z,1011.42
2023-02-20T11:17:17.097Z,1011.53
2023-02-20T11:18:17.101Z,1011.48
2023-02-20T11:19:17.078Z,1011.59
2023-02-20T11:20:17.127Z,1011.35
2023-02-20T11:21:17.052Z,1011.50
2023-02-20T11:22:17.067Z,1011.56
2023-02-20T11:23:17.032Z,1011.51
2023-02-20T11:24:17.031Z,1011.37
2023-02-20T11:25:17.052Z,1011.51
2023-02-20T11:26:17.027Z,1011.56
2023-02-20T11:27:17.003Z,1011.52
2023-02-20T11:28:17.025Z,1011.26
2023-02-20T11:29:16.990Z,1011.33
2023-02-20T11:30:17.168Z,1011.25
2023-02-20T11:31:17.057Z,1011.15
2023-02-20T11:32:16.978Z,1011.33
2023-02-20T11:33:16.969Z,1011.41
2023-02-20T11:34:16.915Z,1011.22
2023-02-20T11:35:16.899Z,1011.23
2023-02-20T11:36:20.065Z,1011.18
2023-02-20T11:37:16.882Z,1011.47
2023-02-20T11:38:16.968Z,1011.15
2023-02-20T11:39:16.870Z,1010.97
2023-02-20T11:40:16.878Z,1011.19
2023-02-20T11:41:16.832Z,1011.10
2023-02-20T11:42:16.870Z,1011.30
2023-02-20T11:43:16.811Z,1011.09
2023-02-20T11:44:16.846Z,1011.81
2023-02-20T11:45:16.781Z,1010.90
2023-02-20T11:46:16.953Z,1011.01
2023-02-20T11:47:16.812Z,1011.08
2023-02-20T11:48:17.423Z,1011.14
2023-02-20T11:49:16.767Z,1011.21
2023-02-20T11:50:19.895Z,1011.18
2023-02-20T11:51:16.736Z,1011.13
2023-02-20T11:52:16.757Z,1011.20
2023-02-20T11:53:16.719Z,1011.17
2023-02-20T11:54:16.716Z,1011.03
2023-02-20T11:55:16.732Z,1011.10
2023-02-20T11:56:17.021Z,1010.95
2023-02-20T11:57:16.711Z,1010.79
2023-02-20T11:58:16.656Z,1010.83
2023-02-20T11:59:16.652Z,1010.98
2023-02-20T12:00:16.690Z,1011.01
2023-02-20T12:01:16.645Z,1011.09
2023-02-20T12:02:16.651Z,1010.97
2023-02-20T12:03:16.608Z,1010.95
2023-02-20T12:04:16.727Z,1010.80
2023-02-20T12:05:16.626Z,1010.85